Time;durP1;ratioP1;P1;durP2;ratioP2;P2;SDS_P1;SDS_P2;PMS_P1;PMS_P2;Temp;Humidity;BMP_temperature;BMP_pressure;BME280_temperature;BME280_humidity;BME280_pressure;Samples;Min_cycle;Max_cycle;Signal;HPM_P1;HPM_P2
2023/04/15 00:00:30;;;;;;;0.68;0.45;;;;;;;11.42;89.78;100226.09;4988644;28;20044;-69
2023/04/15 00:02:55;;;;;;;0.57;0.30;;;;;;;11.38;89.85;100217.19;4996100;28;20037;-71
2023/04/15 00:05:21;;;;;;;0.40;0.40;;;;;;;11.30;90.31;100218.25;4996373;28;20500;-73
2023/04/15 00:07:46;;;;;;;1.02;0.60;;;;;;;11.37;90.21;100207.53;4990937;28;20555;-69
2023/04/15 00:10:13;;;;;;;0.82;0.40;;;;;;;11.49;90.66;100215.38;4974251;28;20038;-71
2023/04/15 00:12:40;;;;;;;0.85;0.82;;;;;;;11.44;90.68;100207.63;4986797;28;20046;-69
2023/04/15 00:15:08;;;;;;;0.60;0.60;;;;;;;11.43;90.40;100201.44;4991939;28;20029;-69
2023/04/15 00:17:33;;;;;;;0.43;0.38;;;;;;;11.32;90.52;100199.81;4995412;28;20018;-68
2023/04/15 00:19:59;;;;;;;1.73;1.00;;;;;;;11.29;91.17;100201.31;4991561;28;20064;-72
2023/04/15 00:22:26;;;;;;;1.13;0.65;;;;;;;11.31;91.61;100200.94;4980362;28;20173;-70
2023/04/15 00:24:54;;;;;;;0.75;0.47;;;;;;;11.34;91.45;100203.66;4991330;28;20026;-68
2023/04/15 00:27:19;;;;;;;1.95;0.80;;;;;;;11.39;91.65;100202.56;4991291;28;20129;-68
2023/04/15 00:29:45;;;;;;;0.40;0.40;;;;;;;11.43;91.41;100201.44;4994649;28;20602;-71
2023/04/15 00:32:11;;;;;;;1.13;0.40;;;;;;;11.41;91.32;100202.97;4991892;28;20038;-70
2023/04/15 00:34:39;;;;;;;0.95;0.50;;;;;;;11.41;91.04;100202.97;4973940;28;20041;-70
2023/04/15 00:37:06;;;;;;;1.52;0.60;;;;;;;11.37;91.78;100204.84;4960455;28;20402;-69
2023/04/15 00:39:31;;;;;;;0.40;0.40;;;;;;;11.40;91.20;100193.34;4991430;28;20038;-70
2023/04/15 00:41:57;;;;;;;0.68;0.68;;;;;;;11.40;91.70;100191.41;4975524;28;20039;-70
2023/04/15 00:44:23;;;;;;;1.23;0.60;;;;;;;11.43;91.84;100197.97;4980461;28;20029;-69
2023/04/15 00:46:50;;;;;;;0.20;0.20;;;;;;;11.36;92.16;100204.06;4971971;28;20042;-69
2023/04/15 00:49:19;;;;;;;0.50;0.40;;;;;;;11.41;91.95;100203.75;4973802;28;20042;-69
2023/04/15 00:51:44;;;;;;;0.68;0.50;;;;;;;11.38;91.80;100195.63;4991419;28;20038;-71
2023/04/15 00:54:10;;;;;;;0.38;0.30;;;;;;;11.35;91.88;100207.91;4991426;28;20040;-69
2023/04/15 00:56:37;;;;;;;0.55;0.40;;;;;;;11.39;92.11;100199.84;4957621;28;20468;-69
2023/04/15 00:59:06;;;;;;;0.50;0.43;;;;;;;11.43;91.85;100192.59;4991190;28;20031;-69
2023/04/15 01:01:34;;;;;;;0.40;0.35;;;;;;;11.43;91.92;100195.28;4974311;28;20069;-70
2023/04/15 01:04:00;;;;;;;0.57;0.47;;;;;;;11.40;92.06;100190.63;4994359;28;20029;-70
2023/04/15 01:06:26;;;;;;;0.60;0.50;;;;;;;11.47;91.97;100194.19;4973429;28;20045;-72
2023/04/15 01:08:56;;;;;;;0.40;0.40;;;;;;;11.56;91.40;100193.84;4957717;28;20035;-69
2023/04/15 01:11:23;;;;;;;0.43;0.40;;;;;;;11.45;92.02;100190.28;4988868;28;20038;-69
2023/04/15 01:13:53;;;;;;;1.55;0.40;;;;;;;11.46;92.21;100186.44;4955194;28;20031;-70
2023/04/15 01:16:19;;;;;;;2.15;0.68;;;;;;;11.41;92.66;100182.19;4988369;28;20026;-70
2023/04/15 01:18:45;;;;;;;0.77;0.50;;;;;;;11.37;92.75;100175.97;4981497;28;20113;-73
2023/04/15 01:21:11;;;;;;;0.63;0.47;;;;;;;11.47;92.39;100171.81;4983706;28;20255;-70
2023/04/15 01:23:38;;;;;;;0.30;0.30;;;;;;;11.41;92.73;100176.00;4976235;28;20070;-71
2023/04/15 01:26:06;;;;;;;0.40;0.40;;;;;;;11.35;92.87;100172.88;4977239;28;20030;-69
2023/04/15 01:28:32;;;;;;;1.98;0.70;;;;;;;11.32;93.26;100172.84;4968091;28;20517;-69
2023/04/15 01:31:12;;;;;;;1.42;0.75;;;;;;;11.35;93.41;100172.88;4994284;28;20061;-69
2023/04/15 01:33:39;;;;;;;0.98;0.40;;;;;;;11.38;92.80;100164.03;4971091;28;20037;-70
2023/04/15 01:36:07;;;;;;;0.80;0.40;;;;;;;11.31;93.25;100161.28;4976528;28;20065;-70
2023/04/15 01:38:33;;;;;;;0.98;0.88;;;;;;;11.31;93.68;100165.88;4976555;28;20141;-69
2023/04/15 01:40:58;;;;;;;0.50;0.30;;;;;;;11.34;93.51;100162.47;4972912;28;20122;-69
2023/04/15 01:43:25;;;;;;;0.77;0.55;;;;;;;11.32;93.60;100165.53;4970201;28;20034;-70
2023/04/15 01:45:50;;;;;;;1.67;0.63;;;;;;;11.37;93.51;100167.88;4976603;28;20415;-69
2023/04/15 01:48:16;;;;;;;0.70;0.60;;;;;;;11.39;93.06;100165.59;4993904;28;20042;-70
2023/04/15 01:50:42;;;;;;;0.73;0.70;;;;;;;11.35;93.83;100161.31;4993066;28;20030;-69
2023/04/15 01:53:08;;;;;;;1.10;0.63;;;;;;;11.32;94.49;100157.47;4976073;28;20034;-70
2023/04/15 01:55:34;;;;;;;0.43;0.43;;;;;;;11.34;94.10;100159.78;4971918;28;20522;-71
2023/04/15 01:58:00;;;;;;;0.57;0.47;;;;;;;11.36;93.65;100160.19;4974029;28;20088;-71
2023/04/15 02:00:26;;;;;;;1.00;0.60;;;;;;;11.35;93.83;100155.91;4988117;28;20038;-69
2023/04/15 02:02:51;;;;;;;1.10;0.88;;;;;;;11.37;93.79;100153.63;4971997;28;20027;-69
2023/04/15 02:05:17;;;;;;;0.63;0.60;;;;;;;11.35;94.49;100151.31;4973331;28;20088;-70
2023/04/15 02:07:47;;;;;;;0.80;0.80;;;;;;;11.42;94.06;100150.59;4987722;28;20038;-70
2023/04/15 02:10:12;;;;;;;2.53;1.05;;;;;;;11.41;93.88;100135.56;4990123;28;20046;-73
2023/04/15 02:12:39;;;;;;;0.95;0.47;;;;;;;11.38;93.78;100147.09;4992433;28;20101;-70
2023/04/15 02:15:06;;;;;;;0.40;0.40;;;;;;;11.42;93.97;100137.13;4960286;28;20495;-75
2023/04/15 02:17:36;;;;;;;1.77;0.77;;;;;;;11.35;94.78;100143.22;4973654;28;20121;-71
2023/04/15 02:20:04;;;;;;;0.30;0.30;;;;;;;11.38;94.71;100134.38;4960085;28;20120;-74
2023/04/15 02:22:30;;;;;;;1.35;0.73;;;;;;;11.35;94.92;100134.34;4992918;28;20109;-69
2023/04/15 02:24:56;;;;;;;0.57;0.57;;;;;;;11.35;94.84;100137.81;4970825;28;20723;-71
2023/04/15 02:27:21;;;;;;;0.82;0.68;;;;;;;11.38;94.50;100134.38;4973189;28;20031;-70
2023/04/15 02:29:52;;;;;;;0.70;0.70;;;;;;;11.30;95.24;100138.19;4992486;28;20394;-70
2023/04/15 02:32:17;;;;;;;1.60;0.98;;;;;;;11.29;95.18;100147.41;4959980;28;20037;-73
2023/04/15 02:34:43;;;;;;;1.95;0.90;;;;;;;11.31;94.70;100144.31;4975485;28;20503;-70
2023/04/15 02:37:12;;;;;;;2.17;1.08;;;;;;;11.28;95.60;100143.16;4974254;28;20376;-75
2023/04/15 02:39:38;;;;;;;1.35;0.80;;;;;;;11.34;95.09;100149.00;4952753;28;20883;-75
2023/04/15 02:42:04;;;;;;;1.92;0.82;;;;;;;11.32;95.17;100152.06;4956319;28;20033;-72
2023/04/15 02:44:31;;;;;;;1.02;0.90;;;;;;;11.36;95.01;100142.06;4992505;28;20038;-69
2023/04/15 02:46:59;;;;;;;1.80;0.98;;;;;;;11.32;95.45;100141.28;4970073;28;20104;-69
2023/04/15 02:49:25;;;;;;;1.40;0.98;;;;;;;11.33;95.44;100142.03;4973340;28;20488;-70
2023/04/15 02:51:50;;;;;;;1.65;0.70;;;;;;;11.34;95.50;100149.00;4974929;28;20034;-69
2023/04/15 02:54:21;;;;;;;1.27;0.77;;;;;;;11.28;95.77;100137.78;4974271;28;20026;-70
2023/04/15 02:57:09;;;;;;;1.38;0.90;;;;;;;11.33;96.05;100139.34;4990231;28;20026;-72
2023/04/15 02:59:34;;;;;;;0.98;0.65;;;;;;;11.38;95.92;100145.16;4931044;29;20074;-71
2023/04/15 03:02:00;;;;;;;2.33;0.95;;;;;;;11.39;95.14;100138.63;4931779;29;20524;-69
2023/04/15 03:04:28;;;;;;;3.50;1.23;;;;;;;11.31;95.88;100145.09;4928305;29;20074;-70
2023/04/15 03:06:55;;;;;;;2.05;1.00;;;;;;;11.35;95.78;100139.75;4928573;29;20031;-71
2023/04/15 03:09:21;;;;;;;2.97;1.27;;;;;;;11.34;96.08;100152.44;4923212;29;20031;-71
2023/04/15 03:11:46;;;;;;;2.03;1.15;;;;;;;11.34;96.52;100144.34;4917524;29;20769;-69
2023/04/15 03:14:12;;;;;;;3.90;1.15;;;;;;;11.36;96.71;100144.00;4930426;29;20039;-69
2023/04/15 03:16:41;;;;;;;2.42;1.33;;;;;;;11.31;96.03;100142.41;4935948;29;20094;-71
2023/04/15 03:19:06;;;;;;;2.67;1.10;;;;;;;11.27;96.68;100136.22;4916875;29;20480;-69
2023/04/15 03:21:33;;;;;;;3.28;1.30;;;;;;;11.28;96.74;100139.69;4932398;29;20036;-69
2023/04/15 03:23:58;;;;;;;1.38;0.65;;;;;;;11.31;96.56;100133.53;4932278;29;20425;-69
2023/04/15 03:26:30;;;;;;;4.32;1.45;;;;;;;11.35;95.83;100137.81;4932470;29;20088;-69
2023/04/15 03:29:08;;;;;;;3.95;1.30;;;;;;;11.24;96.28;100136.97;4928282;29;20072;-69
2023/04/15 03:31:34;;;;;;;1.75;0.80;;;;;;;11.25;97.08;100135.81;4913723;29;20553;-69
2023/04/15 03:34:00;;;;;;;2.13;1.15;;;;;;;11.27;96.86;100128.13;4930514;29;20039;-72
2023/04/15 03:36:31;;;;;;;2.47;1.35;;;;;;;11.28;96.78;100137.00;4951865;28;20518;-71
2023/04/15 03:38:57;;;;;;;;;;;;;;;11.27;97.03;100125.44;4991179;28;20053;-71
2023/04/15 03:41:23;;;;;;;1.38;0.70;;;;;;;11.30;96.95;100124.69;4992349;28;20289;-69
2023/04/15 03:43:50;;;;;;;2.70;0.95;;;;;;;11.26;97.06;100123.13;4992556;28;20038;-70
2023/04/15 03:46:17;;;;;;;4.38;1.65;;;;;;;11.28;97.58;100129.69;4985718;28;20034;-72
2023/04/15 03:48:42;;;;;;;4.32;1.60;;;;;;;11.32;97.52;100137.81;4987769;28;20038;-72
2023/04/15 03:51:07;;;;;;;2.58;1.42;;;;;;;11.37;96.84;100140.16;4992029;28;20177;-69
2023/04/15 03:53:33;;;;;;;4.68;1.08;;;;;;;11.37;97.14;100135.53;5006406;23;20049;-50
2023/04/15 03:55:58;;;;;;;2.50;1.27;;;;;;;11.40;96.46;100136.72;5019904;28;20761;-51
2023/04/15 03:58:24;;;;;;;1.67;1.13;;;;;;;11.33;96.72;100144.72;5007473;28;20106;-50
2023/04/15 04:00:50;;;;;;;1.50;1.25;;;;;;;11.30;97.55;100148.19;5007342;28;20036;-53
2023/04/15 04:03:16;;;;;;;1.25;0.88;;;;;;;11.33;97.37;100148.22;5009447;28;20440;-49
2023/04/15 04:05:43;;;;;;;3.92;1.83;;;;;;;11.35;96.98;100148.59;5013106;28;20042;-54
2023/04/15 04:08:08;;;;;;;2.80;1.55;;;;;;;11.26;97.64;100155.47;5008479;28;20033;-54
2023/04/15 04:10:34;;;;;;;1.58;0.80;;;;;;;11.28;97.62;100143.16;5009895;28;20628;-48
2023/04/15 04:13:00;;;;;;;0.82;0.65;;;;;;;11.24;97.71;100150.44;5011342;28;20096;-49
2023/04/15 04:15:25;;;;;;;2.55;1.33;;;;;;;11.30;97.48;100143.56;5012128;28;20052;-50
2023/04/15 04:17:51;;;;;;;1.90;1.50;;;;;;;11.31;98.02;100137.03;5017407;28;20492;-51
2023/04/15 04:20:16;;;;;;;2.20;1.10;;;;;;;11.22;97.93;100139.25;5008931;28;20574;-53
2023/04/15 04:22:42;;;;;;;3.63;1.67;;;;;;;11.21;98.13;100134.22;5013159;28;20069;-50
2023/04/15 04:25:11;;;;;;;3.58;1.35;;;;;;;11.24;98.68;100144.28;5010098;28;20049;-49
2023/04/15 04:27:37;;;;;;;4.55;1.63;;;;;;;11.24;98.60;100138.88;4997516;28;20033;-48
2023/04/15 04:30:03;;;;;;;4.00;1.63;;;;;;;11.25;98.04;100135.81;5009853;28;20041;-51
2023/04/15 04:32:29;;;;;;;2.03;1.15;;;;;;;11.23;98.44;100134.63;5009400;28;20076;-49
2023/04/15 04:34:54;;;;;;;3.33;1.38;;;;;;;11.23;98.04;100131.94;5007956;28;20488;-51
2023/04/15 04:37:20;;;;;;;7.28;1.67;;;;;;;11.28;98.19;100137.00;5006726;28;20480;-53
2023/04/15 04:39:45;;;;;;;6.88;1.02;;;;;;;11.20;98.17;100135.38;5011279;28;20685;-54
2023/04/15 04:42:11;;;;;;;1.98;1.23;;;;;;;11.19;98.03;100139.22;5007106;28;20046;-52
2023/04/15 04:44:36;;;;;;;2.67;1.48;;;;;;;11.01;99.56;100144.44;5014719;28;20075;-48
2023/04/15 04:47:02;;;;;;;3.60;1.73;;;;;;;11.09;99.73;100143.34;5008387;28;20105;-53
2023/04/15 04:49:27;;;;;;;3.22;1.33;;;;;;;11.16;99.01;100143.44;5008417;28;20492;-49
2023/04/15 04:51:53;;;;;;;3.67;1.38;;;;;;;11.21;99.80;100142.31;5007477;28;20032;-56
2023/04/15 04:54:18;;;;;;;2.67;1.27;;;;;;;11.33;98.93;100142.03;5014287;28;20396;-53
2023/04/15 04:56:44;;;;;;;5.03;1.92;;;;;;;11.29;99.21;100152.78;5002900;28;20053;-53
2023/04/15 04:59:09;;;;;;;3.97;2.15;;;;;;;11.20;99.70;100149.63;5003264;28;20038;-49
2023/04/15 05:01:35;;;;;;;3.30;1.77;;;;;;;11.20;99.46;100149.63;5005688;28;20037;-51
2023/04/15 05:04:00;;;;;;;4.82;2.22;;;;;;;11.12;100.00;100147.22;5007439;28;20030;-48
2023/04/15 05:06:26;;;;;;;2.58;1.77;;;;;;;11.21;99.75;100150.38;5005186;28;20034;-54
2023/04/15 05:08:52;;;;;;;4.15;1.95;;;;;;;11.17;100.00;100152.31;5005695;28;20116;-51
2023/04/15 05:11:17;;;;;;;3.85;2.20;;;;;;;11.24;100.00;100147.75;5008245;28;20044;-51
2023/04/15 05:13:43;;;;;;;4.55;2.30;;;;;;;11.28;99.77;100153.94;5009417;28;20069;-51
2023/04/15 05:16:08;;;;;;;2.45;1.27;;;;;;;11.34;99.82;100151.69;5004887;28;20045;-47
2023/04/15 05:18:33;;;;;;;3.42;1.73;;;;;;;11.37;99.87;100150.94;5005888;28;20032;-49
2023/04/15 05:20:59;;;;;;;3.92;2.33;;;;;;;11.35;100.00;100145.91;5008229;28;20109;-54
2023/04/15 05:23:25;;;;;;;5.20;2.13;;;;;;;11.35;100.00;100150.53;4976077;28;20034;-49
2023/04/15 05:25:50;;;;;;;5.15;2.15;;;;;;;11.38;99.42;100142.47;5012912;28;20030;-50
2023/04/15 05:28:15;;;;;;;4.88;1.90;;;;;;;11.37;99.62;100148.22;5008579;28;20029;-50
2023/04/15 05:30:41;;;;;;;3.85;1.58;;;;;;;11.36;100.00;100150.16;5009263;28;20033;-49
2023/04/15 05:33:07;;;;;;;5.13;2.05;;;;;;;11.37;99.79;100159.78;5006529;28;20049;-54
2023/04/15 05:35:33;;;;;;;3.78;1.77;;;;;;;11.34;100.00;100149.75;5008935;28;20513;-55
2023/04/15 05:37:58;;;;;;;8.27;1.88;;;;;;;11.22;100.00;100155.44;5017589;28;20025;-50
2023/04/15 05:40:24;;;;;;;3.92;2.58;;;;;;;11.30;100.00;100148.19;5003934;28;20488;-51
2023/04/15 05:42:50;;;;;;;9.68;2.90;;;;;;;11.36;100.00;100162.88;5007183;28;20036;-55
2023/04/15 05:45:15;;;;;;;2.60;1.70;;;;;;;11.26;100.00;100155.47;5012680;28;20112;-52
2023/04/15 05:47:40;;;;;;;3.85;2.42;;;;;;;11.34;100.00;100159.78;5007312;28;20077;-52
2023/04/15 05:50:07;;;;;;;4.50;2.15;;;;;;;11.39;100.00;100162.13;5008904;28;20056;-50
2023/04/15 05:52:32;;;;;;;8.77;2.38;;;;;;;11.45;99.98;100149.84;5008528;28;20119;-55
2023/04/15 05:54:58;;;;;;;5.85;2.45;;;;;;;11.40;100.00;100163.69;5006364;28;20026;-52
2023/04/15 05:57:23;;;;;;;3.88;2.38;;;;;;;11.44;100.00;100159.09;5006903;28;20034;-53
2023/04/15 05:59:51;;;;;;;4.38;2.40;;;;;;;11.42;100.00;100166.78;5008477;28;20546;-56
2023/04/15 06:02:16;;;;;;;6.57;2.88;;;;;;;11.40;100.00;100166.38;5001623;28;20044;-56
2023/04/15 06:04:42;;;;;;;6.35;2.42;;;;;;;11.41;100.00;100178.69;5009025;28;20041;-55
2023/04/15 06:07:08;;;;;;;12.45;2.95;;;;;;;11.46;100.00;100172.94;5008658;28;20061;-52
2023/04/15 06:09:33;;;;;;;5.53;2.40;;;;;;;11.47;100.00;100180.69;5007691;28;20078;-53
2023/04/15 06:12:00;;;;;;;4.15;1.95;;;;;;;11.41;100.00;100184.09;5008116;28;20034;-56
2023/04/15 06:14:25;;;;;;;12.88;3.30;;;;;;;11.42;100.00;100183.72;5015783;28;20393;-54
2023/04/15 06:16:51;;;;;;;11.25;2.90;;;;;;;11.29;100.00;100195.91;5012772;28;20037;-54
2023/04/15 06:19:17;;;;;;;7.05;2.22;;;;;;;11.34;100.00;100198.25;5011427;28;20029;-49
2023/04/15 06:21:43;;;;;;;4.22;1.80;;;;;;;11.35;100.00;100204.44;5017801;28;20029;-52
2023/04/15 06:24:09;;;;;;;5.18;2.00;;;;;;;11.37;100.00;100196.75;5010260;28;20493;-51
2023/04/15 06:26:34;;;;;;;7.90;2.63;;;;;;;11.40;100.00;100190.63;5011373;28;20034;-54
2023/04/15 06:29:00;;;;;;;4.43;2.33;;;;;;;11.50;100.00;100196.13;5014938;28;20113;-50
2023/04/15 06:31:25;;;;;;;3.67;2.35;;;;;;;11.56;100.00;100193.84;5011862;28;20463;-51
2023/04/15 06:33:51;;;;;;;6.55;2.15;;;;;;;11.54;100.00;100193.44;5008661;28;20034;-50
2023/04/15 06:36:16;;;;;;;3.90;1.60;;;;;;;11.46;100.00;100199.91;5009024;28;20042;-52
2023/04/15 06:38:42;;;;;;;6.18;2.88;;;;;;;11.46;100.00;100205.31;5010204;28;20087;-51
2023/04/15 06:41:07;;;;;;;4.20;2.70;;;;;;;11.48;100.00;100213.81;5007807;28;20499;-51
2023/04/15 06:43:33;;;;;;;4.15;2.83;;;;;;;11.53;100.00;100208.09;5011414;28;20550;-53
2023/04/15 06:45:59;;;;;;;9.10;2.95;;;;;;;11.52;100.00;100211.91;5008056;28;20116;-54
2023/04/15 06:48:25;;;;;;;6.90;2.88;;;;;;;11.45;100.00;100209.16;5010805;28;20048;-53
2023/04/15 06:50:50;;;;;;;9.05;2.65;;;;;;;11.36;100.00;100211.41;5011452;28;20042;-55
2023/04/15 06:53:16;;;;;;;6.28;2.10;;;;;;;11.40;100.00;100212.22;5009345;28;20049;-51
2023/04/15 06:55:41;;;;;;;7.95;2.97;;;;;;;11.47;100.00;100218.44;5008521;28;20042;-54
2023/04/15 06:58:27;;;;;;;7.55;2.72;;;;;;;11.51;100.00;100218.47;5009170;28;20033;-56
2023/04/15 07:00:53;;;;;;;7.07;3.38;;;;;;;11.55;100.00;100216.59;4977132;28;20056;-57
2023/04/15 07:03:18;;;;;;;3.83;2.42;;;;;;;11.57;100.00;100212.38;4969060;28;20120;-55
2023/04/15 07:05:44;;;;;;;5.82;2.40;;;;;;;11.52;100.00;100226.19;4965646;28;20085;-53
2023/04/15 07:08:10;;;;;;;4.13;2.15;;;;;;;11.56;100.00;100210.81;4968787;28;20031;-54
2023/04/15 07:10:35;;;;;;;7.00;3.05;;;;;;;11.57;100.00;100217.78;4965167;28;20127;-54
2023/04/15 07:13:01;;;;;;;6.20;2.97;;;;;;;11.58;100.00;100222.00;4966370;28;20045;-54
2023/04/15 07:15:27;;;;;;;13.57;3.45;;;;;;;11.55;100.00;100233.53;4961592;28;20049;-53
2023/04/15 07:17:53;;;;;;;7.35;3.00;;;;;;;11.45;100.00;100222.66;4950133;28;20145;-51
2023/04/15 07:20:18;;;;;;;8.57;2.20;;;;;;;11.49;100.00;100226.16;4959653;28;20089;-54
2023/04/15 07:22:44;;;;;;;7.75;2.08;;;;;;;11.59;100.00;100236.28;4955549;28;20123;-55
2023/04/15 07:25:09;;;;;;;5.25;2.42;;;;;;;11.52;100.00;100230.78;4954237;28;20467;-54
2023/04/15 07:27:35;;;;;;;5.00;2.40;;;;;;;11.52;100.00;100236.97;4971987;28;20122;-56
2023/04/15 07:30:01;;;;;;;9.18;2.50;;;;;;;11.50;100.00;100238.47;4961388;28;20137;-54
2023/04/15 07:32:26;;;;;;;5.80;2.50;;;;;;;11.50;100.00;100243.88;4962211;28;20348;-51
2023/04/15 07:34:52;;;;;;;4.55;2.63;;;;;;;11.43;100.00;100249.19;4972094;28;20034;-56
2023/04/15 07:37:17;;;;;;;6.38;2.42;;;;;;;11.34;100.00;100251.44;4977423;28;20116;-54
2023/04/15 07:39:43;;;;;;;6.90;2.60;;;;;;;11.30;100.00;100245.22;5011396;28;20126;-55
2023/04/15 07:42:09;;;;;;;6.90;2.33;;;;;;;11.37;100.00;100251.47;5006241;28;20068;-57
2023/04/15 07:44:35;;;;;;;6.57;2.33;;;;;;;11.51;100.00;100245.44;4994988;28;20056;-54
2023/04/15 07:47:02;;;;;;;7.65;3.15;;;;;;;11.53;100.00;100257.41;5007759;28;20038;-55
2023/04/15 07:49:27;;;;;;;8.13;3.15;;;;;;;11.54;100.00;100250.06;5009749;28;20262;-55
2023/04/15 07:51:52;;;;;;;6.97;2.83;;;;;;;11.55;100.00;100251.63;5008170;28;20030;-54
2023/04/15 07:54:18;;;;;;;5.25;2.53;;;;;;;11.61;100.00;100263.66;5007960;28;20026;-56
2023/04/15 07:56:43;;;;;;;7.75;3.08;;;;;;;11.70;100.00;100266.84;5009347;28;20109;-50
2023/04/15 07:59:09;;;;;;;6.40;3.08;;;;;;;11.67;100.00;100270.28;5011185;28;20180;-52
2023/04/15 08:01:35;;;;;;;6.72;2.83;;;;;;;11.65;100.00;100270.63;5002767;28;20069;-52
2023/04/15 08:04:01;;;;;;;10.18;2.88;;;;;;;11.70;100.00;100259.53;5009364;28;20092;-53
2023/04/15 08:06:26;;;;;;;3.58;2.03;;;;;;;11.74;100.00;100264.94;5009765;28;20029;-51
2023/04/15 08:08:53;;;;;;;5.80;2.65;;;;;;;11.77;100.00;100272.28;5008623;28;20038;-51
2023/04/15 08:11:20;;;;;;;9.30;3.42;;;;;;;11.86;100.00;100272.78;5008767;28;20041;-53
2023/04/15 08:13:46;;;;;;;7.05;2.10;;;;;;;11.89;100.00;100273.94;5019230;28;20029;-50
2023/04/15 08:16:23;;;;;;;3.42;2.15;;;;;;;11.89;100.00;100277.41;5005901;28;20076;-53
2023/04/15 08:18:52;;;;;;;7.82;3.47;;;;;;;11.92;100.00;100267.81;5009136;28;20034;-52
2023/04/15 08:21:19;;;;;;;6.43;2.08;;;;;;;12.00;100.00;100280.22;5009594;28;20099;-55
2023/04/15 08:23:47;;;;;;;7.15;3.00;;;;;;;11.92;100.00;100273.19;5007645;28;20042;-53
2023/04/15 08:26:13;;;;;;;9.52;3.63;;;;;;;12.04;100.00;100283.72;5010598;28;20115;-57
2023/04/15 08:28:40;;;;;;;5.60;2.35;;;;;;;12.03;100.00;100282.94;5008835;28;20033;-53
2023/04/15 08:31:06;;;;;;;4.85;2.22;;;;;;;12.15;100.00;100279.94;4989568;28;20041;-53
2023/04/15 08:33:31;;;;;;;8.52;2.83;;;;;;;12.19;100.00;100293.47;5008328;28;20153;-52
2023/04/15 08:35:57;;;;;;;5.63;3.38;;;;;;;12.11;100.00;100279.16;5005445;28;20029;-53
2023/04/15 08:38:22;;;;;;;6.72;2.95;;;;;;;12.19;100.00;100294.25;5008126;28;20135;-54
2023/04/15 08:40:48;;;;;;;4.93;2.95;;;;;;;12.24;100.00;100288.50;5005867;28;20045;-51
2023/04/15 08:43:27;;;;;;;6.03;2.70;;;;;;;12.30;100.00;100294.31;5019547;28;20044;-51
2023/04/15 08:45:54;;;;;;;4.03;2.05;;;;;;;12.22;100.00;100292.72;5009169;28;20061;-55
2023/04/15 08:48:21;;;;;;;8.63;3.85;;;;;;;12.25;100.00;100297.38;5003520;28;20076;-49
2023/04/15 08:50:47;;;;;;;6.50;3.13;;;;;;;12.37;100.00;100297.84;5006952;28;20046;-54
2023/04/15 08:53:13;;;;;;;10.18;3.13;;;;;;;12.28;100.00;100289.31;5005066;28;20041;-56
2023/04/15 08:55:46;;;;;;;10.07;4.50;;;;;;;12.37;100.00;100292.44;5007707;28;20026;-54
2023/04/15 08:58:13;;;;;;;9.50;2.72;;;;;;;12.34;100.00;100298.59;5002653;28;20052;-52
2023/04/15 09:00:41;;;;;;;4.45;2.55;;;;;;;12.42;100.00;100304.84;5001482;28;20042;-55
2023/04/15 09:03:07;;;;;;;6.13;2.72;;;;;;;12.45;100.00;100302.16;5007060;28;20145;-56
2023/04/15 09:05:34;;;;;;;12.23;3.50;;;;;;;12.49;100.00;100310.28;5007933;28;20428;-54
2023/04/15 09:08:01;;;;;;;8.50;3.08;;;;;;;12.57;100.00;100317.28;5005902;28;20029;-56
2023/04/15 09:10:27;;;;;;;7.30;3.55;;;;;;;12.63;99.35;100315.78;5001780;28;20042;-50
2023/04/15 09:12:52;;;;;;;8.57;2.38;;;;;;;12.53;99.87;100311.06;5003101;28;20089;-54
2023/04/15 09:15:18;;;;;;;7.40;3.03;;;;;;;12.53;100.00;100309.16;5000699;28;20038;-50
2023/04/15 09:17:44;;;;;;;5.43;2.30;;;;;;;12.71;100.00;100306.56;4984932;28;20362;-52
2023/04/15 09:20:12;;;;;;;5.10;2.45;;;;;;;12.96;99.80;100304.78;5005037;28;20068;-50
2023/04/15 09:22:38;;;;;;;8.43;2.95;;;;;;;13.12;99.83;100309.91;5004729;28;20117;-52
2023/04/15 09:25:27;;;;;;;8.65;3.60;;;;;;;13.43;100.00;100310.00;5003417;28;20379;-53
2023/04/15 09:27:57;;;;;;;5.88;2.30;;;;;;;13.68;99.96;100310.06;5007443;28;20233;-50
2023/04/15 09:30:24;;;;;;;11.13;2.38;;;;;;;13.95;99.03;100311.28;5003911;28;20045;-51
2023/04/15 09:32:54;;;;;;;7.13;3.13;;;;;;;14.03;98.04;100328.31;5005623;28;20486;-54
2023/04/15 09:35:21;;;;;;;6.82;2.95;;;;;;;14.06;97.73;100316.69;5005572;28;20032;-51
2023/04/15 09:37:50;;;;;;;3.70;2.28;;;;;;;14.13;96.66;100319.41;5019310;28;20061;-56
2023/04/15 09:40:32;;;;;;;10.90;2.97;;;;;;;14.17;95.26;100323.66;5012476;28;20072;-56
2023/04/15 09:42:58;;;;;;;4.07;2.05;;;;;;;14.20;93.61;100320.19;5008663;28;20243;-52
2023/04/15 09:45:25;;;;;;;3.78;2.17;;;;;;;14.11;93.84;100333.31;4988223;28;20026;-53
2023/04/15 09:47:51;;;;;;;6.25;2.67;;;;;;;14.11;93.37;100327.91;4989581;28;20060;-54
2023/04/15 09:50:18;;;;;;;7.53;3.22;;;;;;;14.18;92.70;100333.34;5012044;28;20125;-55
2023/04/15 09:52:44;;;;;;;6.90;2.67;;;;;;;14.18;93.16;100327.94;5018724;22;20070;-69
2023/04/15 09:55:11;;;;;;;4.43;2.00;;;;;;;14.20;92.08;100328.31;4966788;28;20077;-69
2023/04/15 09:57:37;;;;;;;5.30;2.35;;;;;;;14.27;91.98;100330.22;4964800;28;20031;-69
2023/04/15 10:00:09;;;;;;;5.65;2.72;;;;;;;14.34;91.27;100328.31;4951529;28;20033;-69
2023/04/15 10:02:36;;;;;;;8.00;2.53;;;;;;;14.50;91.49;100324.47;4953997;28;20043;-69
2023/04/15 10:05:03;;;;;;;5.30;2.45;;;;;;;14.69;91.76;100332.94;4972695;28;20031;-69
2023/04/15 10:07:28;;;;;;;4.50;2.80;;;;;;;14.97;91.47;100332.88;4959763;28;20031;-69
2023/04/15 10:09:55;;;;;;;6.15;2.60;;;;;;;15.18;90.42;100337.47;4964340;28;20506;-69
2023/04/15 10:12:21;;;;;;;4.28;2.25;;;;;;;15.29;88.96;100343.63;4968314;28;20034;-69
2023/04/15 10:14:55;;;;;;;5.82;2.47;;;;;;;15.39;87.83;100346.28;4963263;28;20427;-68
2023/04/15 10:17:21;;;;;;;4.07;2.15;;;;;;;15.31;87.32;100342.06;4968840;28;20046;-69
2023/04/15 10:19:48;;;;;;;6.72;2.50;;;;;;;15.40;87.59;100352.50;4969653;28;20026;-69
2023/04/15 10:22:14;;;;;;;3.90;1.58;;;;;;;15.48;87.26;100354.06;4972172;28;20030;-69
2023/04/15 10:24:40;;;;;;;6.47;2.33;;;;;;;15.51;86.57;100358.69;4964141;28;20498;-69
2023/04/15 10:27:06;;;;;;;5.93;3.50;;;;;;;15.58;85.72;100353.19;4974365;28;20062;-69
2023/04/15 10:29:31;;;;;;;3.97;1.80;;;;;;;15.66;85.37;100359.41;4968464;28;20156;-69
2023/04/15 10:32:00;;;;;;;4.05;2.10;;;;;;;15.60;84.14;100361.72;4970072;28;20494;-70
2023/04/15 10:34:26;;;;;;;3.42;1.90;;;;;;;15.50;84.62;100368.00;4973297;28;20038;-69
2023/04/15 10:36:56;;;;;;;2.75;1.85;;;;;;;15.58;84.39;100366.78;4971528;28;20077;-69
2023/04/15 10:39:42;;;;;;;3.95;1.90;;;;;;;15.72;84.12;100366.72;4951312;28;20122;-69
2023/04/15 10:42:13;;;;;;;3.60;1.80;;;;;;;15.74;83.99;100369.03;4967279;28;20058;-69
2023/04/15 10:44:41;;;;;;;6.28;1.98;;;;;;;15.80;83.42;100370.94;4960012;28;20038;-69
2023/04/15 10:47:12;;;;;;;4.07;1.52;;;;;;;15.75;82.74;100379.50;4960286;28;20042;-70
2023/04/15 10:49:51;;;;;;;4.60;1.58;;;;;;;15.78;82.74;100378.72;4964501;28;20133;-69
2023/04/15 10:52:22;;;;;;;2.92;1.88;;;;;;;15.64;83.14;100378.78;4967016;28;20395;-69
2023/04/15 10:54:47;;;;;;;2.63;1.30;;;;;;;15.65;83.74;100383.06;4971682;28;20500;-69
2023/04/15 10:57:22;;;;;;;2.47;1.35;;;;;;;15.38;83.74;100387.41;4953738;28;20063;-69
2023/04/15 10:59:57;;;;;;;4.43;2.05;;;;;;;15.49;83.21;100387.38;4958242;28;20031;-70
2023/04/15 11:02:43;;;;;;;3.53;1.73;;;;;;;15.44;82.67;100395.94;4951096;28;20035;-70
2023/04/15 11:05:16;;;;;;;3.65;1.65;;;;;;;15.37;83.56;100391.25;4968276;28;20531;-69
2023/04/15 11:07:50;;;;;;;3.65;1.83;;;;;;;15.42;83.22;100393.63;4968113;28;20022;-69
2023/04/15 11:10:19;;;;;;;7.22;2.30;;;;;;;15.47;83.15;100395.13;4965350;28;20114;-70
2023/04/15 11:12:46;;;;;;;3.40;1.90;;;;;;;15.54;82.32;100382.34;4970352;28;20038;-70
2023/04/15 11:15:33;;;;;;;3.33;1.90;;;;;;;15.52;82.19;100381.16;4965399;28;20543;-69
2023/04/15 11:18:22;;;;;;;4.85;1.98;;;;;;;15.61;82.86;100385.00;4966718;28;20031;-69
2023/04/15 11:20:56;;;;;;;6.88;2.72;;;;;;;15.63;81.78;100388.09;4948726;28;20062;-69